createdAt,value
2023-11-28T01:10:42.988Z,0.10
2023-11-28T01:41:14.484Z,0.00
2023-11-28T01:45:34.950Z,0.00
2023-11-28T02:06:31.288Z,-0.10
2023-11-28T02:31:47.790Z,-0.10
2023-11-28T04:12:51.387Z,-1.90
2023-11-28T04:43:45.522Z,-1.50
2023-11-28T05:14:11.000Z,-1.40
2023-11-28T05:39:32.689Z,-1.90
2023-11-28T05:59:43.524Z,-2.20
2023-11-28T06:20:16.290Z,-2.30
2023-11-28T06:50:33.266Z,-2.70
2023-11-28T07:20:59.371Z,-2.50
2023-11-28T07:46:35.391Z,-2.10
2023-11-28T08:06:34.688Z,-1.90
2023-11-28T08:36:37.714Z,-1.70
2023-11-28T08:57:35.461Z,-1.50
2023-11-28T09:22:59.677Z,-1.40
2023-11-28T09:52:47.388Z,-1.00
2023-11-28T10:13:34.402Z,-0.80
2023-11-28T10:43:33.264Z,-0.40
2023-11-28T11:04:06.180Z,-0.40
2023-11-28T11:24:20.682Z,-0.20
2023-11-28T11:54:37.677Z,-0.30
2023-11-28T12:15:01.943Z,-0.20
2023-11-28T13:21:22.453Z,-0.50
2023-11-28T13:46:48.717Z,-0.80
2023-11-28T14:06:58.291Z,-0.80
2023-11-28T14:37:37.496Z,-0.90
2023-11-28T14:58:04.304Z,-1.00
2023-11-28T15:18:16.269Z,-1.00
2023-11-28T15:43:27.031Z,-1.10
2023-11-28T16:03:39.274Z,-1.10
2023-11-28T16:34:16.373Z,-1.30
2023-11-28T16:54:46.811Z,-1.30
2023-11-28T17:30:18.013Z,-1.40
2023-11-28T17:34:38.456Z,-1.40
2023-11-28T18:00:26.929Z,-1.60
2023-11-28T18:20:56.261Z,-1.70
2023-11-28T18:41:03.131Z,-1.90
2023-11-28T19:37:09.501Z,-2.00
2023-11-28T20:06:53.026Z,-2.20
2023-11-28T20:27:11.310Z,-2.10
2023-11-28T20:52:58.676Z,-2.20
2023-11-28T21:44:07.023Z,-2.20
2023-11-28T21:48:28.311Z,-2.10
2023-11-28T22:09:09.274Z,-2.30
2023-11-28T22:29:29.103Z,-2.30
2023-11-28T22:54:43.887Z,-2.40
2023-11-28T23:50:52.244Z,-2.50
